Terminal Aerodrome Forecast
Issued by NWS Boston, MA

Home | Current Version | Previous Version | Text Only | Print | Product List | Glossary On
Versions: 1 2 3 4 5 6 7 8 9 10 11 12 13 14 15 16 17 18 19 20 21 22 23
000
FTUS41 KBOX 212105 AAC
TAFPVD
TAF AMD
KPVD 212105Z 2121/2218 03023G34KT P6SM BKN070
     FM220900 01017G27KT P6SM BKN020
     FM221500 01016G27KT P6SM VCSH BKN020=

USA.gov is the U.S. government's official web portal to all federal, state and local government web resources and services.